createdAt,value
2018-06-25T00:01:32.465Z,2.64
2018-06-25T00:07:33.174Z,3.01
2018-06-25T00:11:34.079Z,2.83
2018-06-25T00:17:34.755Z,2.99
2018-06-25T00:21:35.500Z,2.64
2018-06-25T00:23:36.220Z,2.72
2018-06-25T00:27:37.688Z,2.25
2018-06-25T00:33:38.590Z,2.89
2018-06-25T00:37:39.338Z,2.42
2018-06-25T00:43:40.143Z,2.2
2018-06-25T00:47:40.827Z,2.11
2018-06-25T00:49:41.705Z,2.11
2018-06-25T00:53:42.813Z,2.01
2018-06-25T00:59:43.518Z,2.59
2018-06-25T01:03:44.205Z,2.28
2018-06-25T01:09:44.941Z,2.75
2018-06-25T01:13:45.783Z,2.23
2018-06-25T01:15:46.454Z,2.65
2018-06-25T01:19:47.211Z,2.72
2018-06-25T01:25:47.946Z,2.6
2018-06-25T01:29:48.626Z,2.22
2018-06-25T01:35:49.532Z,2.6
2018-06-25T01:41:50.372Z,2.72
2018-06-25T01:45:51.130Z,2.59
2018-06-25T01:51:51.779Z,2.87
2018-06-25T01:55:52.557Z,2.53
2018-06-25T02:01:53.381Z,2.89
2018-06-25T02:07:54.059Z,2.68
2018-06-25T02:11:54.854Z,2.12
2018-06-25T02:17:55.510Z,2.64
2018-06-25T02:21:56.196Z,2.54
2018-06-25T02:27:57.042Z,2.53
2018-06-25T02:33:57.831Z,2.56
2018-06-25T02:37:58.594Z,2.12
2018-06-25T02:43:59.304Z,2.58
2018-06-25T02:47:59.986Z,2.36
2018-06-25T02:54:00.779Z,2.03
2018-06-25T03:00:01.675Z,2.6
2018-06-25T03:04:02.374Z,2.36
2018-06-25T03:10:03.199Z,2.87
2018-06-25T03:14:03.923Z,2.45
2018-06-25T03:20:04.642Z,2.45
2018-06-25T03:26:05.415Z,3.02
2018-06-25T03:30:06.319Z,2.53
2018-06-25T03:36:07.086Z,3.04
2018-06-25T03:40:07.825Z,2.51
2018-06-25T03:46:08.497Z,2.55
2018-06-25T03:52:09.385Z,2.74
2018-06-25T03:56:10.188Z,2.37
2018-06-25T04:02:10.847Z,2.98
2018-06-25T04:06:11.582Z,2.34
2018-06-25T04:12:12.418Z,2.68
2018-06-25T04:18:13.143Z,2.7
2018-06-25T04:22:13.836Z,2.29
2018-06-25T04:28:14.610Z,3.22
2018-06-25T04:32:15.424Z,2.85
2018-06-25T04:34:16.206Z,2.53
2018-06-25T04:38:16.969Z,2.62
2018-06-25T04:44:17.864Z,2.98
2018-06-25T04:48:18.674Z,2.77
2018-06-25T04:54:19.492Z,3.12
2018-06-25T04:58:20.180Z,3.35
2018-06-25T05:00:21.401Z,3.52
2018-06-25T05:04:22.284Z,3.19
2018-06-25T05:10:23.129Z,3.26
2018-06-25T05:14:23.974Z,3.08
2018-06-25T05:20:24.812Z,3.8
2018-06-25T05:24:25.455Z,3.34
2018-06-25T05:26:26.124Z,3.67
2018-06-25T05:30:27.524Z,3.17
2018-06-25T05:36:28.279Z,3.33
2018-06-25T05:40:29.084Z,2.84
2018-06-25T05:46:29.879Z,3.43
2018-06-25T05:50:30.562Z,3.39
2018-06-25T05:52:31.227Z,3.65
2018-06-25T05:56:32.125Z,3.31
2018-06-25T06:02:32.952Z,4.34
2018-06-25T06:06:33.691Z,3.84
2018-06-25T06:12:34.413Z,3.6
2018-06-25T06:16:35.190Z,3.68
2018-06-25T06:18:35.871Z,4.16
2018-06-25T06:22:36.549Z,3.71
2018-06-25T06:28:37.369Z,4.57
2018-06-25T06:32:38.077Z,4.63
2018-06-25T06:38:38.902Z,4.47
2018-06-25T06:42:39.746Z,3.75
2018-06-25T06:44:40.472Z,3.57
2018-06-25T06:48:41.253Z,3.28
2018-06-25T06:54:42.095Z,4.18
2018-06-25T06:58:42.861Z,3.75
2018-06-25T07:04:43.704Z,3.91
2018-06-25T07:08:44.381Z,4.29
2018-06-25T07:10:45.121Z,4.07
2018-06-25T07:14:45.796Z,3.68
2018-06-25T07:20:46.671Z,3.75
2018-06-25T07:24:47.352Z,3.44
2018-06-25T07:30:48.265Z,3.68
2018-06-25T07:34:49.128Z,3.36
2018-06-25T07:36:49.934Z,3.73
2018-06-25T07:40:50.669Z,3.59
2018-06-25T07:46:51.430Z,2.81
2018-06-25T07:50:52.522Z,2.71
2018-06-25T07:56:53.199Z,3.16
2018-06-25T08:00:53.964Z,3.61
2018-06-25T08:02:54.662Z,3.41
2018-06-25T08:06:55.376Z,2.9
2018-06-25T08:12:56.458Z,2.93
2018-06-25T08:16:57.227Z,2.52
2018-06-25T08:22:58.145Z,3.01
2018-06-25T08:26:58.783Z,2.76
2018-06-25T08:28:59.655Z,2.58
2018-06-25T08:33:00.586Z,2.45
2018-06-25T08:39:01.364Z,2.97
2018-06-25T08:43:02.395Z,5.02
2018-06-25T08:49:03.218Z,2.37
2018-06-25T08:53:03.991Z,1.78
2018-06-25T08:55:04.983Z,1.94
2018-06-25T08:59:05.842Z,1.94
2018-06-25T09:05:06.668Z,2.01
2018-06-25T09:09:07.424Z,1.47
2018-06-25T09:15:08.512Z,2.02
2018-06-25T09:21:09.352Z,1.83
2018-06-25T09:25:10.273Z,1.71
2018-06-25T09:31:11.193Z,1.92
2018-06-25T09:35:12.001Z,1.79
2018-06-25T09:41:12.811Z,1.73
2018-06-25T09:47:13.565Z,1.59
2018-06-25T09:51:14.372Z,1.45
2018-06-25T09:57:16.862Z,1.38
2018-06-25T10:01:17.685Z,1.43
2018-06-25T10:07:18.544Z,1.53
2018-06-25T10:13:19.371Z,1.51
2018-06-25T10:17:20.036Z,1.98
2018-06-25T10:23:20.798Z,1.41
2018-06-25T10:27:21.627Z,1.08
2018-06-25T10:33:22.582Z,1.58
2018-06-25T10:39:26.062Z,1.45
2018-06-25T10:43:27.457Z,1.44
2018-06-25T10:49:28.351Z,2.08
2018-06-25T10:53:29.774Z,1.86
2018-06-25T10:59:30.643Z,2.45
2018-06-25T11:05:31.257Z,2.12
2018-06-25T11:09:32.051Z,1.9
2018-06-25T11:15:32.786Z,2.18
2018-06-25T11:19:33.659Z,1.86
2018-06-25T11:25:34.432Z,2.05
2018-06-25T11:31:35.286Z,2.14
2018-06-25T11:35:35.951Z,1.85
2018-06-25T11:41:36.798Z,2.29
2018-06-25T11:45:37.761Z,2.32
2018-06-25T11:51:38.495Z,1.9
2018-06-25T11:57:39.443Z,1.61
2018-06-25T12:01:40.204Z,1.35
2018-06-25T12:07:41.074Z,1.97
2018-06-25T12:11:41.837Z,1.77
2018-06-25T12:17:43.018Z,2.26
2018-06-25T12:23:43.926Z,2.54
2018-06-25T12:27:44.774Z,1.92
2018-06-25T12:33:45.529Z,2.68
2018-06-25T12:37:46.325Z,2.57
2018-06-25T12:39:47.075Z,2.92
2018-06-25T12:43:47.825Z,2.5
2018-06-25T12:49:48.655Z,2.61
2018-06-25T12:53:49.582Z,2.34
2018-06-25T12:59:50.716Z,2.15
2018-06-25T13:03:51.423Z,1.51
2018-06-25T13:05:52.133Z,2
2018-06-25T13:09:52.888Z,1.61
2018-06-25T13:15:54.762Z,1.27
2018-06-25T13:19:55.574Z,0.98
2018-06-25T13:25:56.434Z,0.92
2018-06-25T13:29:57.062Z,0.63
2018-06-25T13:31:57.955Z,0.88
2018-06-25T13:35:58.572Z,0.52
2018-06-25T13:41:59.292Z,0.52
2018-06-25T13:46:00.084Z,0.6
2018-06-25T13:52:01.054Z,0.5
2018-06-25T13:56:01.868Z,0.55
2018-06-25T13:58:02.523Z,0.59
2018-06-25T14:02:03.347Z,0.79
2018-06-25T14:08:04.595Z,0.98
2018-06-25T14:12:05.308Z,1.06
2018-06-25T14:18:06.043Z,1.17
2018-06-25T14:22:06.687Z,1.08
2018-06-25T14:24:07.655Z,1.23
2018-06-25T14:28:08.543Z,1.3
2018-06-25T14:34:09.378Z,1.85
2018-06-25T14:38:10.209Z,1.67
2018-06-25T14:44:10.958Z,2.12
2018-06-25T14:48:11.871Z,1.49
2018-06-25T14:50:12.616Z,1.74
2018-06-25T14:54:13.332Z,1.37
2018-06-25T15:00:14.509Z,1.51
2018-06-25T15:04:15.239Z,1.62
2018-06-25T15:10:16.167Z,1.37
2018-06-25T15:14:16.865Z,1.08
2018-06-25T15:16:17.627Z,1.29
2018-06-25T15:20:18.332Z,1.15
2018-06-25T15:26:18.989Z,0.96
2018-06-25T15:30:19.861Z,1
2018-06-25T15:36:20.713Z,1.07
2018-06-25T15:40:21.526Z,1.36
2018-06-25T15:42:22.238Z,1.26
2018-06-25T15:46:23.111Z,1.29
2018-06-25T15:52:23.839Z,1.2
2018-06-25T15:56:24.596Z,0.88
2018-06-25T16:02:25.429Z,1.22
2018-06-25T16:08:26.181Z,0.95
2018-06-25T16:12:27.103Z,1.14
2018-06-25T16:18:28.036Z,1.07
2018-06-25T16:22:28.849Z,1.11
2018-06-25T16:28:29.588Z,1.34
2018-06-25T16:34:30.307Z,1.37
2018-06-25T16:38:31.081Z,1.27
2018-06-25T16:44:31.802Z,1.93
2018-06-25T16:48:32.646Z,2.83
2018-06-25T16:54:33.554Z,1.08
2018-06-25T17:00:34.883Z,1.03
2018-06-25T17:04:36.913Z,1
2018-06-25T17:10:37.865Z,0.84
2018-06-25T17:14:38.702Z,1.02
2018-06-25T17:26:41.193Z,0.91
2018-06-25T17:26:41.346Z,1.15
2018-06-25T17:30:42.347Z,0.97
2018-06-25T17:36:43.124Z,0.91
2018-06-25T17:40:43.874Z,0.87
2018-06-25T17:46:44.814Z,1.05
2018-06-25T17:52:45.678Z,1.02
2018-06-25T17:56:46.592Z,0.99
2018-06-25T18:02:47.265Z,1.08
2018-06-25T18:06:54.873Z,0.82
2018-06-25T18:12:56.783Z,1.02
2018-06-25T18:18:57.607Z,1.04
2018-06-25T18:22:58.308Z,0.99
2018-06-25T18:28:59.022Z,1.61
2018-06-25T18:32:59.694Z,1.44
2018-06-25T18:39:00.599Z,1.17
2018-06-25T18:45:01.474Z,1.04
2018-06-25T18:49:02.282Z,1.09
2018-06-25T18:55:03.017Z,1.16
2018-06-25T18:59:03.822Z,1.37
2018-06-25T19:05:05.272Z,1.27
2018-06-25T19:11:06.260Z,1.44
2018-06-25T19:15:07.205Z,1.33
2018-06-25T19:21:07.976Z,1.33
2018-06-25T19:25:08.793Z,1.42
2018-06-25T19:31:09.527Z,1.26
2018-06-25T19:37:10.389Z,1.69
2018-06-25T19:41:11.003Z,1.57
2018-06-25T19:47:11.714Z,1.65
2018-06-25T19:51:12.493Z,1.69
2018-06-25T19:57:13.335Z,1.67
2018-06-25T20:03:14.098Z,1.46
2018-06-25T20:07:14.845Z,1.25
2018-06-25T20:13:15.627Z,1.36
2018-06-25T20:17:16.494Z,1.13
2018-06-25T20:23:17.359Z,0.83
2018-06-25T20:29:18.147Z,1.39
2018-06-25T20:33:19.077Z,1.03
2018-06-25T20:39:24.068Z,1.39
2018-06-25T20:43:24.827Z,1.21
2018-06-25T20:49:25.587Z,1.17
2018-06-25T20:55:26.448Z,1.19
2018-06-25T20:59:27.208Z,0.89
2018-06-25T21:05:28.136Z,1.21
2018-06-25T21:09:28.798Z,0.95
2018-06-25T21:15:29.510Z,0.95
2018-06-25T21:21:30.351Z,1.32
2018-06-25T21:25:31.088Z,1.12
2018-06-25T21:31:31.893Z,1.44
2018-06-25T21:35:32.716Z,1.11
2018-06-25T21:37:33.456Z,1.58
2018-06-25T21:41:34.326Z,1.06
2018-06-25T21:47:35.140Z,1.39
2018-06-25T21:51:35.866Z,1.08
2018-06-25T21:57:36.683Z,1.29
2018-06-25T22:01:37.419Z,1.16
2018-06-25T22:03:38.239Z,1.39
2018-06-25T22:07:39.126Z,1.03
2018-06-25T22:13:39.793Z,1.2
2018-06-25T22:17:40.701Z,1.11
2018-06-25T22:23:41.487Z,1.48
2018-06-25T22:27:42.382Z,1.16
2018-06-25T22:29:43.044Z,1.4
2018-06-25T22:33:43.795Z,1.01
2018-06-25T22:39:44.596Z,1.33
2018-06-25T22:43:45.278Z,1.26
2018-06-25T22:49:46.034Z,1.49
2018-06-25T22:53:46.800Z,1.21
2018-06-25T22:55:47.489Z,1.37
2018-06-25T22:59:48.461Z,1.47
2018-06-25T23:05:49.221Z,1.53
2018-06-25T23:09:49.945Z,1.34
2018-06-25T23:15:50.821Z,1.54
2018-06-25T23:19:51.820Z,1.31
2018-06-25T23:21:52.451Z,1.53
2018-06-25T23:25:53.287Z,1.42
2018-06-25T23:31:53.985Z,1.76
2018-06-25T23:35:54.775Z,1.42
2018-06-25T23:41:55.705Z,1.26
2018-06-25T23:45:56.572Z,1.23
2018-06-25T23:47:57.313Z,1.49
2018-06-25T23:51:58.024Z,1.35
2018-06-25T23:57:58.758Z,1.57
